Time;durP1;ratioP1;P1;durP2;ratioP2;P2;SDS_P1;SDS_P2;PMS_P1;PMS_P2;Temp;Humidity;BMP_temperature;BMP_pressure;BME280_temperature;BME280_humidity;BME280_pressure;Samples;Min_cycle;Max_cycle;Signal;HPM_P1;HPM_P2
2022/06/24 00:02:09;;;;;;;10.83;6.50;;;;;;;22.14;100.00;100545.84;5268882;28;20056;-69
2022/06/24 00:04:49;;;;;;;12.23;6.50;;;;;;;22.04;100.00;100564.94;5262796;28;20469;-69
2022/06/24 00:07:21;;;;;;;10.77;7.18;;;;;;;21.88;100.00;100605.41;5268464;28;20021;-70
2022/06/24 00:09:52;;;;;;;12.35;6.80;;;;;;;21.92;100.00;100633.31;5266877;28;20051;-69
2022/06/24 00:12:26;;;;;;;13.23;7.73;;;;;;;21.94;100.00;100649.94;5270358;28;20028;-69
2022/06/24 00:15:00;;;;;;;15.18;8.52;;;;;;;21.82;100.00;100639.91;5270077;28;20029;-68
2022/06/24 00:17:32;;;;;;;17.80;12.88;;;;;;;21.70;100.00;100619.41;5268037;28;20397;-69
2022/06/24 00:20:09;;;;;;;18.95;13.65;;;;;;;21.69;100.00;100631.13;5268193;28;20389;-69
2022/06/24 00:22:46;;;;;;;17.52;14.90;;;;;;;21.63;100.00;100651.44;5265890;28;20032;-68
2022/06/24 00:25:17;;;;;;;19.45;15.43;;;;;;;21.53;100.00;100669.69;5253405;28;20033;-69
2022/06/24 00:28:05;;;;;;;18.90;16.90;;;;;;;21.67;100.00;100695.31;5269455;28;20028;-69
2022/06/24 00:30:38;;;;;;;15.82;14.07;;;;;;;21.43;100.00;100691.41;5266057;28;20115;-69
2022/06/24 00:33:20;;;;;;;14.55;13.02;;;;;;;21.35;100.00;100680.97;5265258;28;20115;-69
2022/06/24 00:35:56;;;;;;;14.85;11.27;;;;;;;21.18;100.00;100688.53;5264659;28;20743;-70
2022/06/24 00:38:30;;;;;;;10.82;9.43;;;;;;;21.14;100.00;100711.28;5261631;28;20020;-69
2022/06/24 00:41:12;;;;;;;11.38;9.20;;;;;;;21.15;100.00;100723.56;5263200;28;20090;-69
2022/06/24 00:43:46;;;;;;;14.93;9.15;;;;;;;20.93;100.00;100733.53;5262605;28;20041;-69
2022/06/24 00:46:31;;;;;;;12.40;8.38;;;;;;;21.01;100.00;100717.38;5264060;28;20516;-69
2022/06/24 00:49:07;;;;;;;7.43;5.88;;;;;;;20.81;100.00;100706.69;5269327;28;20025;-68
2022/06/24 00:51:38;;;;;;;8.77;6.25;;;;;;;20.70;100.00;100693.13;5274760;28;20036;-69
2022/06/24 00:54:13;;;;;;;7.07;5.33;;;;;;;20.59;100.00;100689.19;5264544;28;20045;-69
2022/06/24 00:56:45;;;;;;;7.90;4.07;;;;;;;20.46;100.00;100705.09;5261310;28;20043;-69
2022/06/24 00:59:16;;;;;;;3.70;3.23;;;;;;;20.45;100.00;100706.91;5263868;28;20029;-69
2022/06/24 01:01:49;;;;;;;4.43;2.93;;;;;;;20.29;100.00;100692.09;5264445;28;20111;-68
2022/06/24 01:04:31;;;;;;;4.35;2.50;;;;;;;20.35;100.00;100682.53;5263768;28;20662;-69
2022/06/24 01:07:03;;;;;;;3.17;1.93;;;;;;;20.06;100.00;100687.09;5269279;28;20398;-69
2022/06/24 01:09:34;;;;;;;9.80;2.87;;;;;;;19.92;100.00;100680.03;5257177;28;20035;-69
2022/06/24 01:12:06;;;;;;;3.57;2.13;;;;;;;19.90;100.00;100666.13;5262492;28;20033;-69
2022/06/24 01:14:37;;;;;;;3.60;1.70;;;;;;;19.84;100.00;100643.78;5265354;28;20082;-69
2022/06/24 01:17:08;;;;;;;2.80;1.50;;;;;;;19.77;100.00;100639.44;5264497;28;20032;-69
2022/06/24 01:19:40;;;;;;;3.80;1.53;;;;;;;19.73;100.00;100635.53;5266276;28;20040;-69
2022/06/24 01:22:11;;;;;;;3.20;1.87;;;;;;;19.71;100.00;100640.25;5265260;28;20036;-69
2022/06/24 01:24:42;;;;;;;5.77;1.70;;;;;;;19.66;100.00;100631.03;5263404;28;20032;-69
2022/06/24 01:27:14;;;;;;;3.63;1.70;;;;;;;19.77;100.00;100634.13;5267299;28;20572;-69
2022/06/24 01:29:46;;;;;;;5.37;1.73;;;;;;;19.62;100.00;100636.91;5259867;28;20077;-69
2022/06/24 01:32:17;;;;;;;3.27;1.50;;;;;;;19.57;100.00;100634.81;5269166;28;20032;-69
2022/06/24 01:34:49;;;;;;;2.00;1.20;;;;;;;19.55;100.00;100625.41;5269206;28;20114;-69
2022/06/24 01:37:20;;;;;;;5.73;1.23;;;;;;;19.57;100.00;100624.19;5262995;28;20097;-69
2022/06/24 01:39:51;;;;;;;3.10;1.27;;;;;;;19.51;100.00;100630.28;5267085;28;20397;-69
2022/06/24 01:42:23;;;;;;;3.20;0.87;;;;;;;19.60;100.00;100631.75;5267317;28;20401;-69
2022/06/24 01:44:54;;;;;;;1.97;1.00;;;;;;;19.54;100.00;100627.22;5266488;28;20048;-69
2022/06/24 01:47:25;;;;;;;2.27;1.13;;;;;;;19.53;100.00;100622.09;5265965;28;20030;-69
2022/06/24 01:49:57;;;;;;;2.80;0.90;;;;;;;19.51;100.00;100602.88;5262300;28;20056;-69
2022/06/24 01:52:28;;;;;;;2.87;0.97;;;;;;;19.51;100.00;100594.91;5266218;28;20039;-69
2022/06/24 01:54:59;;;;;;;3.83;0.90;;;;;;;19.38;100.00;100601.78;5264326;28;20086;-69
2022/06/24 01:57:30;;;;;;;2.27;1.10;;;;;;;19.36;100.00;100598.50;5264549;28;20039;-69
2022/06/24 02:00:03;;;;;;;3.23;1.10;;;;;;;19.25;100.00;100600.88;5262302;28;20120;-69
2022/06/24 02:02:34;;;;;;;2.88;1.10;;;;;;;19.22;100.00;100594.09;5260584;28;20029;-69
2022/06/24 02:05:06;;;;;;;2.40;1.00;;;;;;;19.19;100.00;100589.97;5260807;28;20466;-69
2022/06/24 02:07:38;;;;;;;1.73;0.90;;;;;;;19.20;100.00;100582.84;5264923;28;20300;-69
2022/06/24 02:15:49;;;;;;;2.47;1.10;;;;;;;19.19;100.00;100608.56;5264386;28;20044;-69
2022/06/24 02:18:20;;;;;;;4.57;1.00;;;;;;;19.17;100.00;100597.34;5253227;28;20032;-69
2022/06/24 02:20:53;;;;;;;2.27;1.30;;;;;;;19.08;100.00;100593.16;5264774;28;20024;-69
2022/06/24 02:23:25;;;;;;;2.47;1.47;;;;;;;19.11;100.00;100586.66;5262311;28;20107;-69
2022/06/24 02:25:56;;;;;;;4.57;1.67;;;;;;;19.16;100.00;100595.66;5265944;28;20083;-69
2022/06/24 02:28:28;;;;;;;2.10;1.50;;;;;;;19.22;100.00;100590.63;5261604;28;20572;-69
2022/06/24 02:31:00;;;;;;;2.20;1.30;;;;;;;19.23;100.00;100584.28;5264013;28;20083;-69
2022/06/24 02:33:32;;;;;;;2.15;1.50;;;;;;;19.15;100.00;100582.59;5267754;28;20537;-69
2022/06/24 02:36:04;;;;;;;3.77;1.70;;;;;;;19.17;100.00;100564.66;5261887;28;20089;-69
2022/06/24 02:38:36;;;;;;;3.83;1.57;;;;;;;19.19;100.00;100562.59;5267098;28;20024;-69
2022/06/24 02:41:08;;;;;;;2.53;1.30;;;;;;;19.22;100.00;100550.78;5262478;28;20751;-70
2022/06/24 02:43:39;;;;;;;2.47;1.50;;;;;;;19.19;100.00;100546.66;5267228;28;20032;-69
2022/06/24 02:46:16;;;;;;;3.80;1.40;;;;;;;19.30;100.00;100555.94;5268068;28;20300;-69
2022/06/24 02:48:47;;;;;;;3.30;1.60;;;;;;;19.23;100.00;100555.06;5259591;28;20074;-69
2022/06/24 02:51:19;;;;;;;2.83;1.80;;;;;;;19.24;100.00;100551.41;5268016;28;20021;-69
2022/06/24 02:53:50;;;;;;;4.03;1.80;;;;;;;19.23;100.00;100552.41;5267512;28;20040;-69
2022/06/24 02:56:21;;;;;;;3.00;1.40;;;;;;;19.19;100.00;100547.50;5266911;28;20341;-69
2022/06/24 02:58:53;;;;;;;2.20;1.40;;;;;;;19.15;100.00;100542.75;5265641;28;20474;-69
2022/06/24 03:01:24;;;;;;;2.70;1.60;;;;;;;19.17;100.00;100538.09;5267973;28;20401;-69
2022/06/24 03:03:55;;;;;;;3.72;1.70;;;;;;;19.15;100.00;100530.31;5270097;28;20392;-69
2022/06/24 03:06:26;;;;;;;2.63;1.80;;;;;;;19.12;100.00;100535.19;5262910;28;20115;-69
2022/06/24 03:08:58;;;;;;;2.30;1.67;;;;;;;19.13;100.00;100529.69;5263110;28;20021;-69
2022/06/24 03:11:29;;;;;;;3.23;1.80;;;;;;;19.11;100.00;100531.72;5264931;28;20029;-69
2022/06/24 03:14:00;;;;;;;4.03;1.87;;;;;;;19.11;100.00;100534.38;5262103;28;20481;-69
2022/06/24 03:16:32;;;;;;;2.67;2.00;;;;;;;19.13;100.00;100531.50;5263048;28;20503;-69
2022/06/24 03:19:03;;;;;;;4.97;2.07;;;;;;;19.09;100.00;100522.28;5261508;28;20389;-69
2022/06/24 03:21:34;;;;;;;3.60;2.33;;;;;;;19.13;100.00;100521.72;5268630;28;20025;-69
2022/06/24 03:24:06;;;;;;;2.73;2.03;;;;;;;19.08;100.00;100524.13;5262969;28;20032;-69
2022/06/24 03:26:37;;;;;;;2.90;1.87;;;;;;;19.09;100.00;100523.13;5271713;28;20012;-69
2022/06/24 03:29:08;;;;;;;3.77;2.20;;;;;;;19.01;100.00;100517.94;5266921;28;20020;-69
2022/06/24 03:31:40;;;;;;;3.23;2.33;;;;;;;19.03;100.00;100525.72;5261021;28;20025;-69
2022/06/24 03:34:11;;;;;;;2.80;2.23;;;;;;;19.04;100.00;100525.53;5271652;28;20028;-69
2022/06/24 03:36:42;;;;;;;5.03;2.40;;;;;;;19.09;100.00;100520.47;5272664;28;20125;-69
2022/06/24 03:39:13;;;;;;;3.97;2.67;;;;;;;19.05;100.00;100513.88;5265278;28;20040;-69
2022/06/24 03:41:45;;;;;;;3.83;2.63;;;;;;;19.05;100.00;100499.78;5256704;28;20032;-69
2022/06/24 03:44:16;;;;;;;5.10;3.37;;;;;;;19.04;100.00;100506.94;5273641;28;20657;-69
2022/06/24 03:46:47;;;;;;;3.27;2.63;;;;;;;19.12;100.00;100511.28;5268523;28;20047;-69
2022/06/24 03:49:19;;;;;;;3.47;2.67;;;;;;;19.12;100.00;100509.44;5262940;28;20029;-69
2022/06/24 03:51:50;;;;;;;3.40;2.63;;;;;;;19.08;100.00;100513.50;5268220;28;20079;-69
2022/06/24 03:54:22;;;;;;;5.40;2.77;;;;;;;19.12;100.00;100525.38;5272841;28;20441;-69
2022/06/24 03:56:53;;;;;;;4.45;2.90;;;;;;;19.08;100.00;100537.41;5269341;28;20024;-69
2022/06/24 03:59:24;;;;;;;4.60;3.30;;;;;;;19.04;100.00;100537.97;5258334;28;20107;-69
2022/06/24 04:01:57;;;;;;;5.57;3.23;;;;;;;19.07;100.00;100542.91;5262595;28;20036;-69
2022/06/24 04:04:28;;;;;;;5.30;3.45;;;;;;;19.01;100.00;100543.66;5262913;28;20444;-69
2022/06/24 04:06:59;;;;;;;4.88;3.60;;;;;;;19.00;100.00;100556.13;5264641;28;20036;-69
2022/06/24 04:09:30;;;;;;;4.60;3.30;;;;;;;18.98;100.00;100554.66;5271155;28;20025;-69
2022/06/24 04:12:02;;;;;;;5.15;3.75;;;;;;;18.99;100.00;100565.13;5265048;28;20040;-69
2022/06/24 04:17:23;;;;;;;4.70;3.88;;;;;;;18.96;100.00;100573.47;5269557;28;20044;-69
2022/06/24 04:19:55;;;;;;;6.87;4.57;;;;;;;19.00;100.00;100563.28;5263785;28;20037;-69
2022/06/24 04:22:26;;;;;;;6.20;4.03;;;;;;;19.00;100.00;100564.09;5267454;28;20470;-68
2022/06/24 04:24:57;;;;;;;4.13;3.60;;;;;;;19.04;100.00;100565.34;5268282;28;20035;-69
2022/06/24 04:27:28;;;;;;;5.07;4.17;;;;;;;19.08;100.00;100573.75;5268662;28;20028;-69
2022/06/24 04:30:01;;;;;;;4.90;4.35;;;;;;;19.07;100.00;100578.25;5262672;28;20413;-69
2022/06/24 04:32:33;;;;;;;5.93;4.18;;;;;;;19.13;100.00;100566.03;5267414;28;20265;-69
2022/06/24 04:35:05;;;;;;;7.60;4.70;;;;;;;19.15;100.00;100566.66;5268083;28;20056;-69
2022/06/24 04:37:37;;;;;;;5.35;4.65;;;;;;;19.04;100.00;100564.53;5261806;28;20029;-69
2022/06/24 04:40:11;;;;;;;6.25;5.05;;;;;;;19.09;100.00;100562.13;5266690;28;20501;-69
2022/06/24 04:42:45;;;;;;;6.65;5.07;;;;;;;19.12;100.00;100565.22;5264438;28;20495;-69
2022/06/24 04:45:17;;;;;;;6.00;5.10;;;;;;;19.07;100.00;100557.00;5269068;28;20037;-69
2022/06/24 04:47:48;;;;;;;6.20;4.90;;;;;;;19.18;100.00;100556.47;5263405;28;20056;-69
2022/06/24 04:50:20;;;;;;;5.57;5.07;;;;;;;19.20;100.00;100554.44;5266478;28;20020;-69
2022/06/24 04:52:51;;;;;;;7.67;5.50;;;;;;;19.22;100.00;100556.09;5266412;28;20123;-68
2022/06/24 04:55:22;;;;;;;5.83;5.33;;;;;;;19.23;100.00;100549.75;5264907;28;20474;-68
2022/06/24 04:57:54;;;;;;;6.37;5.77;;;;;;;19.26;100.00;100560.00;5268027;28;20516;-68
2022/06/24 05:00:25;;;;;;;8.50;5.83;;;;;;;19.28;100.00;100553.50;5270289;28;20028;-68
2022/06/24 05:02:57;;;;;;;6.77;5.87;;;;;;;19.31;100.00;100560.22;5265885;28;20017;-68
2022/06/24 05:05:28;;;;;;;7.23;6.53;;;;;;;19.29;100.00;100565.75;5266279;28;20028;-68
2022/06/24 05:07:59;;;;;;;7.50;6.32;;;;;;;19.30;100.00;100567.38;5266826;28;20060;-68
2022/06/24 05:10:31;;;;;;;7.07;6.38;;;;;;;19.29;100.00;100567.59;5265040;28;20028;-68
2022/06/24 05:13:02;;;;;;;7.73;7.03;;;;;;;19.24;100.00;100565.50;5265008;28;20037;-68
2022/06/24 05:15:34;;;;;;;8.10;7.30;;;;;;;19.28;100.00;100563.28;5265054;28;20028;-68
2022/06/24 05:18:06;;;;;;;7.60;6.70;;;;;;;19.20;100.00;100565.06;5265153;28;20158;-68
2022/06/24 05:20:37;;;;;;;8.80;7.83;;;;;;;19.27;100.00;100565.13;5262846;28;20799;-68
2022/06/24 05:23:09;;;;;;;8.10;7.17;;;;;;;19.27;100.00;100564.28;5263359;28;20143;-68
2022/06/24 05:25:40;;;;;;;8.70;7.27;;;;;;;19.29;100.00;100567.59;5267677;28;20027;-68
2022/06/24 05:28:11;;;;;;;10.93;8.43;;;;;;;19.24;100.00;100567.34;5262179;28;20481;-68
2022/06/24 05:30:42;;;;;;;8.87;8.00;;;;;;;19.28;100.00;100576.56;5267737;28;20077;-68
2022/06/24 05:33:14;;;;;;;8.60;7.70;;;;;;;19.32;100.00;100572.50;5263801;28;20025;-68
2022/06/24 05:35:45;;;;;;;9.13;8.33;;;;;;;19.30;100.00;100569.22;5268902;28;20028;-68
2022/06/24 05:38:17;;;;;;;9.33;8.43;;;;;;;19.19;100.00;100563.44;5259668;28;20037;-68
2022/06/24 05:40:50;;;;;;;8.87;8.07;;;;;;;19.25;100.00;100571.66;5264019;28;20048;-68
2022/06/24 05:43:21;;;;;;;9.18;8.25;;;;;;;19.24;100.00;100573.47;5263264;28;20025;-68
2022/06/24 05:45:53;;;;;;;8.83;8.07;;;;;;;19.24;100.00;100576.13;5263721;28;20036;-68
2022/06/24 05:48:24;;;;;;;9.30;8.50;;;;;;;19.22;100.00;100577.34;5264641;28;20078;-68
2022/06/24 05:50:56;;;;;;;10.87;9.17;;;;;;;19.26;100.00;100575.94;5264694;28;20025;-68
2022/06/24 05:56:18;;;;;;;11.13;10.07;;;;;;;19.35;100.00;100566.78;5260779;28;20071;-68
2022/06/24 05:58:50;;;;;;;16.60;11.40;;;;;;;19.38;100.00;100569.06;5268340;28;20020;-68
2022/06/24 06:01:21;;;;;;;15.13;12.57;;;;;;;19.37;100.00;100567.44;5262671;28;20567;-68
2022/06/24 06:03:53;;;;;;;14.57;13.07;;;;;;;19.46;100.00;100566.25;5264476;28;21912;-68
2022/06/24 06:06:24;;;;;;;14.00;12.47;;;;;;;19.47;100.00;100567.88;5265562;28;20375;-68
2022/06/24 06:08:57;;;;;;;17.43;14.00;;;;;;;19.51;100.00;100573.63;5266217;28;20063;-68
2022/06/24 06:11:28;;;;;;;18.35;15.30;;;;;;;19.54;100.00;100574.06;5260009;28;20040;-68
2022/06/24 06:14:00;;;;;;;19.83;15.23;;;;;;;19.60;100.00;100570.63;5268406;28;20484;-68
2022/06/24 06:16:31;;;;;;;17.00;15.23;;;;;;;19.61;100.00;100574.94;5266495;28;20028;-68
2022/06/24 06:19:02;;;;;;;22.53;18.37;;;;;;;19.62;100.00;100576.63;5262527;28;20063;-68
2022/06/24 06:21:33;;;;;;;24.83;19.40;;;;;;;19.62;100.00;100576.63;5265787;28;21285;-68
2022/06/24 06:24:05;;;;;;;23.53;19.30;;;;;;;19.62;100.00;100571.31;5258398;28;20483;-68
2022/06/24 06:26:36;;;;;;;22.70;18.43;;;;;;;19.62;100.00;100573.97;5262944;28;20024;-68
2022/06/24 06:29:07;;;;;;;23.13;18.83;;;;;;;19.62;100.00;100575.78;5261512;28;20124;-68
2022/06/24 06:31:39;;;;;;;22.57;19.63;;;;;;;19.67;100.00;100570.72;5266257;28;20048;-67
2022/06/24 06:34:10;;;;;;;21.83;19.47;;;;;;;19.69;100.00;100577.47;5262796;28;20059;-67
2022/06/24 06:36:41;;;;;;;22.67;19.50;;;;;;;19.70;100.00;100575.66;5261032;28;20083;-67
2022/06/24 06:39:13;;;;;;;20.07;16.73;;;;;;;19.74;100.00;100576.91;5266073;28;20035;-68
2022/06/24 06:41:46;;;;;;;18.17;16.27;;;;;;;19.76;100.00;100582.81;5266175;28;20074;-68
2022/06/24 06:44:18;;;;;;;19.08;16.73;;;;;;;19.71;100.00;100577.28;5266459;28;20500;-68
2022/06/24 06:46:49;;;;;;;18.87;16.87;;;;;;;19.78;100.00;100566.69;5263862;28;20021;-68
2022/06/24 06:49:20;;;;;;;17.77;15.97;;;;;;;19.79;100.00;100570.97;5260958;28;20020;-67
2022/06/24 06:51:52;;;;;;;18.30;16.40;;;;;;;19.84;100.00;100568.53;5252078;28;20063;-67
2022/06/24 06:54:23;;;;;;;18.73;16.93;;;;;;;19.85;100.00;100557.72;5259908;28;20510;-67
2022/06/24 06:56:54;;;;;;;18.53;16.77;;;;;;;19.89;100.00;100568.78;5261735;28;20548;-67
2022/06/24 06:59:25;;;;;;;17.97;16.27;;;;;;;19.95;100.00;100567.16;5267629;28;20425;-68
2022/06/24 07:01:57;;;;;;;16.93;15.43;;;;;;;19.97;100.00;100557.16;5261123;28;20224;-68
2022/06/24 07:04:28;;;;;;;15.67;14.20;;;;;;;19.97;100.00;100560.63;5263461;28;20112;-68
2022/06/24 07:06:59;;;;;;;14.90;13.40;;;;;;;19.97;100.00;100557.97;5268024;28;20663;-68
2022/06/24 07:09:30;;;;;;;15.80;14.30;;;;;;;19.97;100.00;100571.28;5266502;28;20067;-68
2022/06/24 07:12:02;;;;;;;15.87;14.43;;;;;;;20.00;100.00;100572.69;5263634;28;20024;-68
2022/06/24 07:14:33;;;;;;;17.90;16.23;;;;;;;19.99;100.00;100568.41;5266216;28;20793;-67
2022/06/24 07:17:05;;;;;;;18.33;16.73;;;;;;;20.01;100.00;100559.22;5266368;28;20041;-68
2022/06/24 07:19:36;;;;;;;17.10;15.50;;;;;;;20.09;100.00;100555.56;5267747;28;20052;-67
2022/06/24 07:22:07;;;;;;;18.33;16.53;;;;;;;20.15;100.00;100549.44;5267622;28;20021;-67
2022/06/24 07:24:39;;;;;;;18.90;17.23;;;;;;;20.14;100.00;100547.78;5265801;28;20639;-67
2022/06/24 07:27:11;;;;;;;18.80;17.20;;;;;;;20.20;100.00;100548.84;5264223;28;20029;-67
2022/06/24 07:29:42;;;;;;;18.47;16.83;;;;;;;20.20;100.00;100548.84;5263407;28;20730;-67
2022/06/24 07:32:14;;;;;;;20.40;18.30;;;;;;;20.26;100.00;100550.69;5265477;28;20051;-67
2022/06/24 07:34:45;;;;;;;20.40;18.60;;;;;;;20.31;100.00;100554.41;5254468;28;20097;-67
2022/06/24 07:37:17;;;;;;;20.13;18.33;;;;;;;20.31;100.00;100561.56;5265966;28;20121;-67
2022/06/24 07:39:48;;;;;;;21.23;19.27;;;;;;;20.31;100.00;100567.72;5263615;28;20156;-67
2022/06/24 07:42:19;;;;;;;22.80;20.70;;;;;;;20.34;100.00;100575.28;5265030;28;20421;-67
2022/06/24 07:44:50;;;;;;;24.33;22.23;;;;;;;20.28;100.00;100578.75;5263336;28;20439;-68
2022/06/24 07:47:22;;;;;;;29.23;26.43;;;;;;;20.28;100.00;100583.25;5269743;28;20168;-67
2022/06/24 07:49:53;;;;;;;32.27;29.33;;;;;;;20.26;100.00;100590.59;5267167;28;20020;-67
2022/06/24 07:52:24;;;;;;;35.63;32.37;;;;;;;20.21;100.00;100590.38;5266918;28;20025;-67
2022/06/24 07:57:45;;;;;;;38.95;35.30;;;;;;;20.11;100.00;100594.22;5265619;28;20340;-67
2022/06/24 08:00:17;;;;;;;39.63;35.97;;;;;;;20.20;100.00;100591.41;5268292;28;20029;-67
2022/06/24 08:02:48;;;;;;;36.13;32.53;;;;;;;20.27;100.00;100592.25;5267444;28;20086;-67
2022/06/24 08:05:21;;;;;;;35.83;32.43;;;;;;;20.32;100.00;100590.63;5264367;28;20417;-67
2022/06/24 08:07:52;;;;;;;33.97;30.70;;;;;;;20.45;100.00;100589.00;5267268;28;20409;-68
2022/06/24 08:10:23;;;;;;;33.23;30.13;;;;;;;20.57;100.00;100595.41;5268146;28;20283;-67
2022/06/24 08:12:54;;;;;;;30.97;28.00;;;;;;;20.68;100.00;100599.31;5268763;28;20140;-67
2022/06/24 08:15:26;;;;;;;29.67;26.93;;;;;;;20.86;100.00;100596.91;5270770;28;20021;-67
2022/06/24 08:17:57;;;;;;;27.43;24.83;;;;;;;20.93;100.00;100592.41;5263848;28;20473;-67
2022/06/24 08:20:28;;;;;;;24.47;22.37;;;;;;;20.97;100.00;100590.97;5265207;28;20024;-67
2022/06/24 08:23:01;;;;;;;20.47;18.27;;;;;;;21.02;100.00;100585.81;5265747;28;20086;-67
2022/06/24 08:25:32;;;;;;;18.17;16.42;;;;;;;21.06;100.00;100588.91;5269709;28;20028;-67
2022/06/24 08:28:04;;;;;;;17.27;15.60;;;;;;;21.13;100.00;100590.53;5268105;28;20044;-67
2022/06/24 08:30:35;;;;;;;17.23;15.43;;;;;;;21.34;100.00;100575.41;5266850;28;20021;-68
2022/06/24 08:33:07;;;;;;;17.17;15.67;;;;;;;21.67;100.00;100579.81;5270055;28;20036;-67
2022/06/24 08:35:38;;;;;;;16.87;15.43;;;;;;;21.78;100.00;100574.69;5269817;28;20103;-68
2022/06/24 08:38:09;;;;;;;16.17;14.77;;;;;;;21.76;100.00;100575.91;5269589;28;20056;-68
2022/06/24 08:40:42;;;;;;;14.73;13.37;;;;;;;21.97;100.00;100582.81;5264352;28;20482;-68
2022/06/24 08:43:14;;;;;;;14.25;12.95;;;;;;;21.79;100.00;100586.19;5266334;28;20068;-68
2022/06/24 08:45:48;;;;;;;14.33;12.83;;;;;;;21.98;100.00;100585.28;5262835;28;20114;-68
2022/06/24 08:48:20;;;;;;;15.35;13.95;;;;;;;22.01;100.00;100590.19;5262014;28;20028;-68
2022/06/24 08:50:51;;;;;;;17.93;16.00;;;;;;;22.13;100.00;100584.19;5271293;28;20032;-68
2022/06/24 08:53:25;;;;;;;21.70;19.80;;;;;;;22.17;100.00;100580.91;5267768;28;20500;-68
2022/06/24 08:55:58;;;;;;;24.90;22.80;;;;;;;22.18;100.00;100585.22;5264115;28;20064;-68
2022/06/24 08:58:29;;;;;;;25.75;23.63;;;;;;;22.23;100.00;100582.72;5264622;28;20099;-68
2022/06/24 09:01:00;;;;;;;25.53;23.43;;;;;;;22.27;100.00;100581.25;5265795;28;20036;-68
2022/06/24 09:03:32;;;;;;;20.57;18.90;;;;;;;22.16;100.00;100581.97;5264835;28;20028;-68
2022/06/24 09:06:14;;;;;;;18.03;16.37;;;;;;;22.42;100.00;100588.97;5264132;28;20036;-68
2022/06/24 09:08:48;;;;;;;21.05;19.23;;;;;;;22.24;100.00;100579.03;5269350;28;20024;-68
2022/06/24 09:11:20;;;;;;;25.42;23.25;;;;;;;22.28;100.00;100582.09;5265414;28;20474;-68
2022/06/24 09:13:56;;;;;;;27.10;24.90;;;;;;;22.52;100.00;100581.34;5267736;28;20082;-68
2022/06/24 09:16:28;;;;;;;26.35;24.15;;;;;;;22.70;100.00;100577.13;5263249;28;20029;-68
2022/06/24 09:19:03;;;;;;;26.30;24.20;;;;;;;22.70;100.00;100577.94;5266461;28;20504;-68
2022/06/24 09:21:39;;;;;;;25.65;23.35;;;;;;;22.68;100.00;100580.00;5264987;28;20103;-68
2022/06/24 09:24:11;;;;;;;24.02;22.02;;;;;;;22.95;100.00;100580.63;5261988;28;20116;-69
2022/06/24 09:26:44;;;;;;;22.50;20.70;;;;;;;23.11;100.00;100581.97;5266291;28;20115;-68
2022/06/24 09:29:18;;;;;;;16.30;14.70;;;;;;;23.20;100.00;100575.28;5263612;28;20428;-68
2022/06/24 09:31:49;;;;;;;15.63;14.20;;;;;;;23.45;100.00;100579.78;5267361;28;20028;-68
2022/06/24 09:34:21;;;;;;;15.57;14.07;;;;;;;23.45;100.00;100574.41;5264276;28;20021;-69
2022/06/24 09:36:52;;;;;;;14.47;13.17;;;;;;;23.80;100.00;100572.03;5265222;28;20028;-69
2022/06/24 09:39:24;;;;;;;13.80;12.60;;;;;;;23.91;100.00;100573.16;5263568;28;20028;-70
2022/06/24 09:41:55;;;;;;;12.73;11.43;;;;;;;23.92;100.00;100572.09;5262657;28;20536;-69
2022/06/24 09:44:27;;;;;;;11.33;10.33;;;;;;;24.23;100.00;100568.38;5263661;28;20029;-69
2022/06/24 09:47:03;;;;;;;;;;;;;;;24.78;100.00;100567.44;5262387;28;20043;-69
2022/06/24 09:49:34;;;;;;;9.27;8.43;;;;;;;24.64;100.00;100567.63;5267659;28;19912;-69
2022/06/24 09:52:08;;;;;;;9.00;8.17;;;;;;;24.36;100.00;100575.41;5263671;28;20056;-69
2022/06/24 09:54:41;;;;;;;8.85;7.95;;;;;;;23.96;100.00;100571.41;5267042;28;20048;-69
2022/06/24 09:57:14;;;;;;;9.52;8.65;;;;;;;23.77;100.00;100575.16;5266116;28;20025;-69
2022/06/24 10:02:36;;;;;;;9.35;8.02;;;;;;;23.31;100.00;100579.91;5263176;28;20054;-69
2022/06/24 10:05:09;;;;;;;7.30;6.63;;;;;;;23.49;100.00;100570.28;5255891;28;20036;-69
2022/06/24 10:07:45;;;;;;;8.13;7.40;;;;;;;23.53;100.00;100574.97;5268571;28;20378;-69
2022/06/24 10:10:17;;;;;;;9.45;8.38;;;;;;;23.50;100.00;100585.28;5255802;28;20102;-69
2022/06/24 10:12:54;;;;;;;9.10;7.53;;;;;;;23.63;100.00;100568.28;5266567;28;20052;-69
2022/06/24 10:15:26;;;;;;;9.35;8.52;;;;;;;23.79;100.00;100565.06;5264148;28;20024;-69
2022/06/24 10:17:59;;;;;;;9.90;9.00;;;;;;;23.83;100.00;100581.44;5263430;28;20043;-69
2022/06/24 10:20:30;;;;;;;9.98;8.98;;;;;;;23.59;100.00;100591.97;5265124;28;20182;-69
2022/06/24 10:23:01;;;;;;;6.03;5.47;;;;;;;23.05;100.00;100629.06;5263747;28;20497;-69
2022/06/24 10:25:48;;;;;;;10.23;3.37;;;;;;;22.44;100.00;100632.31;5266068;28;20105;-69
2022/06/24 10:28:19;;;;;;;7.07;3.13;;;;;;;21.28;100.00;100635.63;5260851;28;20127;-70
2022/06/24 10:30:57;;;;;;;7.90;2.97;;;;;;;20.83;100.00;100632.72;5255748;28;20100;-68
2022/06/24 10:33:30;;;;;;;3.45;1.90;;;;;;;20.25;100.00;100631.53;5259903;28;20033;-68
2022/06/24 10:36:06;;;;;;;7.55;2.10;;;;;;;20.39;100.00;100633.22;5266131;28;20017;-68
2022/06/24 10:38:42;;;;;;;5.15;2.05;;;;;;;20.37;100.00;100619.28;5265088;28;20036;-68
2022/06/24 10:41:14;;;;;;;4.72;2.17;;;;;;;20.33;100.00;100628.69;5269104;28;20059;-68
2022/06/24 10:43:46;;;;;;;2.93;2.03;;;;;;;20.38;100.00;100629.75;5263830;28;20025;-67
2022/06/24 10:46:18;;;;;;;3.73;2.40;;;;;;;20.51;100.00;100625.50;5259752;28;20056;-67
2022/06/24 10:48:49;;;;;;;5.65;2.60;;;;;;;20.51;100.00;100626.31;5258270;28;20028;-68
2022/06/24 10:51:21;;;;;;;4.53;2.90;;;;;;;20.53;100.00;100629.63;5262989;28;20024;-68
2022/06/24 10:54:02;;;;;;;4.45;3.30;;;;;;;20.69;100.00;100628.41;5315830;22;20051;-69
2022/06/24 10:56:49;;;;;;;4.18;2.55;;;;;;;20.60;100.00;100630.44;5309891;28;20031;-70
2022/06/24 10:59:21;;;;;;;3.95;2.85;;;;;;;20.52;100.00;100619.97;5315307;28;20024;-70
2022/06/24 11:01:52;;;;;;;4.23;2.53;;;;;;;20.56;100.00;100618.53;5313295;28;20070;-70
2022/06/24 11:04:27;;;;;;;3.17;2.07;;;;;;;20.54;100.00;100609.97;5280397;28;20538;-70
2022/06/24 11:07:13;;;;;;;4.15;2.17;;;;;;;20.71;100.00;100614.91;5307969;28;20036;-70
2022/06/24 11:09:44;;;;;;;4.70;2.20;;;;;;;20.42;100.00;100615.00;5282851;28;20027;-69
2022/06/24 11:12:29;;;;;;;3.97;2.77;;;;;;;20.86;100.00;100607.53;5304651;28;20043;-69
2022/06/24 11:15:00;;;;;;;3.80;2.70;;;;;;;20.64;100.00;100596.25;5302530;28;20648;-69
2022/06/24 11:17:31;;;;;;;3.53;2.63;;;;;;;20.79;100.00;100598.72;5303561;28;20058;-69
2022/06/24 11:20:06;;;;;;;3.37;2.83;;;;;;;20.97;100.00;100596.28;5291677;28;20043;-69
2022/06/24 11:22:44;;;;;;;6.90;3.20;;;;;;;21.37;100.00;100589.13;5312600;27;20036;-69
2022/06/24 11:25:18;;;;;;;4.28;3.10;;;;;;;21.61;100.00;100590.31;5299401;28;20028;-69
2022/06/24 11:27:49;;;;;;;3.35;2.10;;;;;;;21.67;100.00;100588.66;5310836;28;20093;-69
2022/06/24 11:30:20;;;;;;;2.73;1.97;;;;;;;21.78;100.00;100577.34;5301889;28;20039;-69
2022/06/24 11:32:58;;;;;;;3.63;2.33;;;;;;;22.01;100.00;100578.69;5305371;28;20028;-69
2022/06/24 11:35:30;;;;;;;3.08;2.20;;;;;;;21.83;100.00;100582.88;5310718;28;20062;-69
2022/06/24 11:38:06;;;;;;;2.87;1.87;;;;;;;21.91;100.00;100589.00;5303845;28;20055;-69
2022/06/24 11:40:39;;;;;;;4.28;2.10;;;;;;;21.73;100.00;100581.66;5299179;28;20521;-69
2022/06/24 11:43:13;;;;;;;3.65;1.83;;;;;;;21.82;100.00;100578.56;5303176;28;20027;-69
2022/06/24 11:45:46;;;;;;;2.55;1.85;;;;;;;21.92;100.00;100586.13;5301589;28;20496;-69
2022/06/24 11:48:20;;;;;;;3.15;1.35;;;;;;;21.82;100.00;100597.25;5316319;28;20031;-69
2022/06/24 11:50:52;;;;;;;2.65;1.85;;;;;;;21.84;100.00;100581.00;5305981;28;20476;-69
2022/06/24 11:53:25;;;;;;;2.03;1.60;;;;;;;21.77;100.00;100573.03;5307517;28;20044;-69